sensor_id;sensor_type;location;lat;lon;timestamp;temperature;humidity
19567;DHT22;9930;49.240;8.548;2023-10-13T00:02:12;20.10;77.60
19567;DHT22;9930;49.240;8.548;2023-10-13T00:04:39;20.10;77.50
19567;DHT22;9930;49.240;8.548;2023-10-13T00:07:08;20.20;77.50
19567;DHT22;9930;49.240;8.548;2023-10-13T00:09:37;20.10;77.50
19567;DHT22;9930;49.240;8.548;2023-10-13T00:12:07;20.20;77.50
19567;DHT22;9930;49.240;8.548;2023-10-13T00:14:42;20.10;77.40
19567;DHT22;9930;49.240;8.548;2023-10-13T00:17:12;20.10;77.40
19567;DHT22;9930;49.240;8.548;2023-10-13T00:19:44;20.10;77.40
19567;DHT22;9930;49.240;8.548;2023-10-13T00:22:17;20.10;77.40
19567;DHT22;9930;49.240;8.548;2023-10-13T00:24:45;20.10;77.50
19567;DHT22;9930;49.240;8.548;2023-10-13T00:27:13;20.10;77.50
19567;DHT22;9930;49.240;8.548;2023-10-13T00:29:56;20.10;77.60
19567;DHT22;9930;49.240;8.548;2023-10-13T00:33:01;20.00;77.50
19567;DHT22;9930;49.240;8.548;2023-10-13T00:35:27;20.00;77.60
19567;DHT22;9930;49.240;8.548;2023-10-13T00:37:57;20.00;77.60
19567;DHT22;9930;49.240;8.548;2023-10-13T00:40:29;20.00;77.70
19567;DHT22;9930;49.240;8.548;2023-10-13T00:43:01;20.00;77.70
19567;DHT22;9930;49.240;8.548;2023-10-13T00:45:52;20.00;77.80
19567;DHT22;9930;49.240;8.548;2023-10-13T00:48:32;19.90;77.60
19567;DHT22;9930;49.240;8.548;2023-10-13T00:51:05;19.90;77.60
19567;DHT22;9930;49.240;8.548;2023-10-13T00:53:41;19.90;77.70
19567;DHT22;9930;49.240;8.548;2023-10-13T00:56:13;19.90;77.60
19567;DHT22;9930;49.240;8.548;2023-10-13T00:58:52;19.90;77.50
19567;DHT22;9930;49.240;8.548;2023-10-13T01:01:23;19.90;77.50
19567;DHT22;9930;49.240;8.548;2023-10-13T01:03:55;19.90;77.60
19567;DHT22;9930;49.240;8.548;2023-10-13T01:06:25;19.80;77.50
19567;DHT22;9930;49.240;8.548;2023-10-13T01:11:25;19.70;77.60
19567;DHT22;9930;49.240;8.548;2023-10-13T01:13:55;19.70;77.50
19567;DHT22;9930;49.240;8.548;2023-10-13T01:16:22;19.70;77.50
19567;DHT22;9930;49.240;8.548;2023-10-13T01:18:54;19.60;77.50
19567;DHT22;9930;49.240;8.548;2023-10-13T01:21:25;19.60;77.70
19567;DHT22;9930;49.240;8.548;2023-10-13T01:23:55;19.60;77.80
19567;DHT22;9930;49.240;8.548;2023-10-13T01:26:23;19.50;77.80
19567;DHT22;9930;49.240;8.548;2023-10-13T01:28:57;19.50;77.90
19567;DHT22;9930;49.240;8.548;2023-10-13T01:31:23;19.50;78.30
19567;DHT22;9930;49.240;8.548;2023-10-13T01:34:02;19.50;78.20
19567;DHT22;9930;49.240;8.548;2023-10-13T01:36:29;19.50;78.30
19567;DHT22;9930;49.240;8.548;2023-10-13T01:39:01;19.50;78.20
19567;DHT22;9930;49.240;8.548;2023-10-13T01:41:27;19.50;78.20
19567;DHT22;9930;49.240;8.548;2023-10-13T01:43:56;19.50;78.00
19567;DHT22;9930;49.240;8.548;2023-10-13T01:46:22;19.50;77.90
19567;DHT22;9930;49.240;8.548;2023-10-13T01:48:48;19.50;77.70
19567;DHT22;9930;49.240;8.548;2023-10-13T01:51:16;19.50;77.60
19567;DHT22;9930;49.240;8.548;2023-10-13T01:53:42;19.50;77.40
19567;DHT22;9930;49.240;8.548;2023-10-13T01:56:09;19.50;77.30
19567;DHT22;9930;49.240;8.548;2023-10-13T01:58:38;19.50;77.20
19567;DHT22;9930;49.240;8.548;2023-10-13T02:01:09;19.50;77.10
19567;DHT22;9930;49.240;8.548;2023-10-13T02:03:36;19.50;76.90
19567;DHT22;9930;49.240;8.548;2023-10-13T02:06:14;19.50;76.80
19567;DHT22;9930;49.240;8.548;2023-10-13T02:08:50;19.50;76.80
19567;DHT22;9930;49.240;8.548;2023-10-13T02:11:22;19.40;76.60
19567;DHT22;9930;49.240;8.548;2023-10-13T02:13:51;19.40;76.60
19567;DHT22;9930;49.240;8.548;2023-10-13T02:16:19;19.40;76.50
19567;DHT22;9930;49.240;8.548;2023-10-13T02:18:47;19.40;76.50
19567;DHT22;9930;49.240;8.548;2023-10-13T02:21:19;19.40;76.50
19567;DHT22;9930;49.240;8.548;2023-10-13T02:23:45;19.30;76.40
19567;DHT22;9930;49.240;8.548;2023-10-13T02:26:28;19.30;76.40
19567;DHT22;9930;49.240;8.548;2023-10-13T02:29:04;19.30;76.40
19567;DHT22;9930;49.240;8.548;2023-10-13T02:31:43;19.20;76.40
19567;DHT22;9930;49.240;8.548;2023-10-13T02:34:19;19.20;76.40
19567;DHT22;9930;49.240;8.548;2023-10-13T02:36:50;19.20;76.50
19567;DHT22;9930;49.240;8.548;2023-10-13T02:39:17;19.10;76.40
19567;DHT22;9930;49.240;8.548;2023-10-13T02:41:51;19.10;76.40
19567;DHT22;9930;49.240;8.548;2023-10-13T02:44:17;19.10;76.50
19567;DHT22;9930;49.240;8.548;2023-10-13T02:47:03;19.10;76.50
19567;DHT22;9930;49.240;8.548;2023-10-13T02:49:40;19.00;76.50
19567;DHT22;9930;49.240;8.548;2023-10-13T02:52:12;19.00;76.50
19567;DHT22;9930;49.240;8.548;2023-10-13T02:54:42;19.00;76.60
19567;DHT22;9930;49.240;8.548;2023-10-13T02:57:18;18.90;76.70
19567;DHT22;9930;49.240;8.548;2023-10-13T02:59:48;18.90;76.80
19567;DHT22;9930;49.240;8.548;2023-10-13T03:02:22;18.90;76.90
19567;DHT22;9930;49.240;8.548;2023-10-13T03:04:55;18.90;76.90
19567;DHT22;9930;49.240;8.548;2023-10-13T03:07:35;18.90;77.00
19567;DHT22;9930;49.240;8.548;2023-10-13T03:10:02;19.00;77.20
19567;DHT22;9930;49.240;8.548;2023-10-13T03:12:40;18.90;77.00
19567;DHT22;9930;49.240;8.548;2023-10-13T03:15:13;18.90;77.00
19567;DHT22;9930;49.240;8.548;2023-10-13T03:17:45;19.00;77.00
19567;DHT22;9930;49.240;8.548;2023-10-13T03:20:16;18.90;76.90
19567;DHT22;9930;49.240;8.548;2023-10-13T03:22:52;18.90;76.90
19567;DHT22;9930;49.240;8.548;2023-10-13T03:25:18;18.90;76.80
19567;DHT22;9930;49.240;8.548;2023-10-13T03:28:10;18.90;76.80
19567;DHT22;9930;49.240;8.548;2023-10-13T03:30:39;18.80;76.80
19567;DHT22;9930;49.240;8.548;2023-10-13T03:33:07;18.80;76.80
19567;DHT22;9930;49.240;8.548;2023-10-13T03:35:52;18.80;76.90
19567;DHT22;9930;49.240;8.548;2023-10-13T03:38:33;18.70;76.80
19567;DHT22;9930;49.240;8.548;2023-10-13T03:41:06;18.70;77.00
19567;DHT22;9930;49.240;8.548;2023-10-13T03:43:32;18.70;77.00
19567;DHT22;9930;49.240;8.548;2023-10-13T03:46:32;18.60;77.00
19567;DHT22;9930;49.240;8.548;2023-10-13T03:49:01;18.60;77.00
19567;DHT22;9930;49.240;8.548;2023-10-13T03:51:31;18.50;77.00
19567;DHT22;9930;49.240;8.548;2023-10-13T03:53:59;18.50;77.00
19567;DHT22;9930;49.240;8.548;2023-10-13T03:56:32;18.50;77.10
19567;DHT22;9930;49.240;8.548;2023-10-13T03:59:04;18.50;77.20
19567;DHT22;9930;49.240;8.548;2023-10-13T04:01:44;18.40;77.20
19567;DHT22;9930;49.240;8.548;2023-10-13T04:04:17;18.40;77.30
19567;DHT22;9930;49.240;8.548;2023-10-13T04:07:03;18.40;77.50
19567;DHT22;9930;49.240;8.548;2023-10-13T04:09:41;18.30;77.60
19567;DHT22;9930;49.240;8.548;2023-10-13T04:12:12;18.30;77.70
19567;DHT22;9930;49.240;8.548;2023-10-13T04:14:44;18.30;77.80
19567;DHT22;9930;49.240;8.548;2023-10-13T04:17:29;18.30;78.10
19567;DHT22;9930;49.240;8.548;2023-10-13T04:19:59;18.30;78.00
19567;DHT22;9930;49.240;8.548;2023-10-13T04:22:35;18.30;77.90
19567;DHT22;9930;49.240;8.548;2023-10-13T04:25:17;18.30;77.80
19567;DHT22;9930;49.240;8.548;2023-10-13T04:28:15;18.30;77.70
19567;DHT22;9930;49.240;8.548;2023-10-13T04:31:00;18.20;77.60
19567;DHT22;9930;49.240;8.548;2023-10-13T04:33:38;18.20;77.60
19567;DHT22;9930;49.240;8.548;2023-10-13T04:36:18;18.30;77.60
19567;DHT22;9930;49.240;8.548;2023-10-13T04:38:52;18.20;77.40
19567;DHT22;9930;49.240;8.548;2023-10-13T04:41:39;18.20;77.30
19567;DHT22;9930;49.240;8.548;2023-10-13T04:44:16;18.20;77.30
19567;DHT22;9930;49.240;8.548;2023-10-13T04:47:01;18.20;77.30
19567;DHT22;9930;49.240;8.548;2023-10-13T04:49:31;18.20;77.30
19567;DHT22;9930;49.240;8.548;2023-10-13T04:52:02;18.10;77.20
19567;DHT22;9930;49.240;8.548;2023-10-13T04:54:32;18.20;77.30
19567;DHT22;9930;49.240;8.548;2023-10-13T04:57:00;18.10;77.20
19567;DHT22;9930;49.240;8.548;2023-10-13T04:59:48;18.10;77.20
19567;DHT22;9930;49.240;8.548;2023-10-13T05:02:33;18.10;77.10
19567;DHT22;9930;49.240;8.548;2023-10-13T05:05:13;18.10;77.00
19567;DHT22;9930;49.240;8.548;2023-10-13T05:07:45;18.10;77.00
19567;DHT22;9930;49.240;8.548;2023-10-13T05:10:30;18.10;77.00
19567;DHT22;9930;49.240;8.548;2023-10-13T05:13:16;18.00;76.90
19567;DHT22;9930;49.240;8.548;2023-10-13T05:16:00;18.00;77.00
19567;DHT22;9930;49.240;8.548;2023-10-13T05:18:45;18.00;77.00
19567;DHT22;9930;49.240;8.548;2023-10-13T05:21:29;17.90;77.00
19567;DHT22;9930;49.240;8.548;2023-10-13T05:24:14;17.90;77.00
19567;DHT22;9930;49.240;8.548;2023-10-13T05:27:02;17.90;77.00
19567;DHT22;9930;49.240;8.548;2023-10-13T05:29:47;17.90;77.10
19567;DHT22;9930;49.240;8.548;2023-10-13T05:32:32;17.80;77.10
19567;DHT22;9930;49.240;8.548;2023-10-13T05:35:19;17.80;77.20
19567;DHT22;9930;49.240;8.548;2023-10-13T05:38:04;17.80;77.20
19567;DHT22;9930;49.240;8.548;2023-10-13T05:41:01;17.70;77.10
19567;DHT22;9930;49.240;8.548;2023-10-13T05:43:46;17.70;77.10
19567;DHT22;9930;49.240;8.548;2023-10-13T05:46:32;17.70;77.10
19567;DHT22;9930;49.240;8.548;2023-10-13T05:49:07;17.60;77.00
19567;DHT22;9930;49.240;8.548;2023-10-13T05:51:34;17.60;77.10
19567;DHT22;9930;49.240;8.548;2023-10-13T05:54:20;17.60;77.10
19567;DHT22;9930;49.240;8.548;2023-10-13T05:56:48;17.50;77.20
19567;DHT22;9930;49.240;8.548;2023-10-13T05:59:35;17.50;77.20
19567;DHT22;9930;49.240;8.548;2023-10-13T06:02:22;17.50;77.30
19567;DHT22;9930;49.240;8.548;2023-10-13T06:05:09;17.50;77.30
19567;DHT22;9930;49.240;8.548;2023-10-13T06:07:54;17.50;77.50
19567;DHT22;9930;49.240;8.548;2023-10-13T06:10:40;17.40;77.50
19567;DHT22;9930;49.240;8.548;2023-10-13T06:13:25;17.40;77.50
19567;DHT22;9930;49.240;8.548;2023-10-13T06:16:14;17.40;77.50
19567;DHT22;9930;49.240;8.548;2023-10-13T06:19:01;17.40;77.50
19567;DHT22;9930;49.240;8.548;2023-10-13T06:21:45;17.40;77.60
19567;DHT22;9930;49.240;8.548;2023-10-13T06:24:30;17.40;77.60
19567;DHT22;9930;49.240;8.548;2023-10-13T06:27:16;17.40;77.60
19567;DHT22;9930;49.240;8.548;2023-10-13T06:30:00;17.40;77.70
19567;DHT22;9930;49.240;8.548;2023-10-13T06:32:29;17.40;77.70
19567;DHT22;9930;49.240;8.548;2023-10-13T06:34:55;17.50;77.80
19567;DHT22;9930;49.240;8.548;2023-10-13T06:37:26;17.50;77.80
19567;DHT22;9930;49.240;8.548;2023-10-13T06:39:59;17.50;77.80
19567;DHT22;9930;49.240;8.548;2023-10-13T06:42:33;17.60;77.90
19567;DHT22;9930;49.240;8.548;2023-10-13T06:45:08;17.60;77.90
19567;DHT22;9930;49.240;8.548;2023-10-13T06:47:38;17.70;78.00
19567;DHT22;9930;49.240;8.548;2023-10-13T06:50:14;17.70;77.90
19567;DHT22;9930;49.240;8.548;2023-10-13T06:52:51;17.70;78.00
19567;DHT22;9930;49.240;8.548;2023-10-13T06:55:21;17.80;78.10
19567;DHT22;9930;49.240;8.548;2023-10-13T06:57:56;17.90;78.20
19567;DHT22;9930;49.240;8.548;2023-10-13T07:00:25;17.90;78.30
19567;DHT22;9930;49.240;8.548;2023-10-13T07:03:00;18.00;78.40
19567;DHT22;9930;49.240;8.548;2023-10-13T07:05:39;18.10;78.50
19567;DHT22;9930;49.240;8.548;2023-10-13T07:08:07;18.10;78.50
19567;DHT22;9930;49.240;8.548;2023-10-13T07:10:50;18.30;79.30
19567;DHT22;9930;49.240;8.548;2023-10-13T07:13:31;18.30;78.30
19567;DHT22;9930;49.240;8.548;2023-10-13T07:16:02;18.40;78.30
19567;DHT22;9930;49.240;8.548;2023-10-13T07:18:37;18.60;78.20
19567;DHT22;9930;49.240;8.548;2023-10-13T07:21:15;18.70;78.10
19567;DHT22;9930;49.240;8.548;2023-10-13T07:23:41;18.70;77.90
19567;DHT22;9930;49.240;8.548;2023-10-13T07:26:22;18.80;77.70
19567;DHT22;9930;49.240;8.548;2023-10-13T07:28:49;18.90;77.70
19567;DHT22;9930;49.240;8.548;2023-10-13T07:31:17;19.00;77.50
19567;DHT22;9930;49.240;8.548;2023-10-13T07:33:47;19.10;77.50
19567;DHT22;9930;49.240;8.548;2023-10-13T07:36:12;19.20;77.30
19567;DHT22;9930;49.240;8.548;2023-10-13T07:38:55;19.20;77.20
19567;DHT22;9930;49.240;8.548;2023-10-13T07:41:48;19.30;77.10
19567;DHT22;9930;49.240;8.548;2023-10-13T07:44:22;19.40;77.10
19567;DHT22;9930;49.240;8.548;2023-10-13T07:46:52;19.50;76.90
19567;DHT22;9930;49.240;8.548;2023-10-13T07:49:36;19.60;76.90
19567;DHT22;9930;49.240;8.548;2023-10-13T07:52:11;19.70;76.40
19567;DHT22;9930;49.240;8.548;2023-10-13T07:54:51;19.80;76.50
19567;DHT22;9930;49.240;8.548;2023-10-13T07:57:37;19.90;76.50
19567;DHT22;9930;49.240;8.548;2023-10-13T08:00:24;20.00;76.50
19567;DHT22;9930;49.240;8.548;2023-10-13T08:03:08;20.10;76.20
19567;DHT22;9930;49.240;8.548;2023-10-13T08:05:40;20.20;76.10
19567;DHT22;9930;49.240;8.548;2023-10-13T08:08:28;20.30;76.00
19567;DHT22;9930;49.240;8.548;2023-10-13T08:11:11;20.50;75.80
19567;DHT22;9930;49.240;8.548;2023-10-13T08:13:53;20.50;75.30
19567;DHT22;9930;49.240;8.548;2023-10-13T08:16:28;20.60;75.10
19567;DHT22;9930;49.240;8.548;2023-10-13T08:19:24;20.80;75.00
19567;DHT22;9930;49.240;8.548;2023-10-13T08:22:01;20.90;74.70
19567;DHT22;9930;49.240;8.548;2023-10-13T08:24:47;21.00;74.50
19567;DHT22;9930;49.240;8.548;2023-10-13T08:27:15;21.10;74.10
19567;DHT22;9930;49.240;8.548;2023-10-13T08:30:03;21.20;73.70
19567;DHT22;9930;49.240;8.548;2023-10-13T08:32:49;21.30;73.50
19567;DHT22;9930;49.240;8.548;2023-10-13T08:35:29;21.40;73.30
19567;DHT22;9930;49.240;8.548;2023-10-13T08:38:10;21.50;73.00
19567;DHT22;9930;49.240;8.548;2023-10-13T08:40:44;21.70;72.70
19567;DHT22;9930;49.240;8.548;2023-10-13T08:43:32;21.80;72.20
19567;DHT22;9930;49.240;8.548;2023-10-13T08:46:10;21.90;71.50
19567;DHT22;9930;49.240;8.548;2023-10-13T08:48:58;22.00;71.60
19567;DHT22;9930;49.240;8.548;2023-10-13T08:51:40;22.10;71.00
19567;DHT22;9930;49.240;8.548;2023-10-13T08:54:14;22.20;71.10
19567;DHT22;9930;49.240;8.548;2023-10-13T08:57:00;22.30;70.90
19567;DHT22;9930;49.240;8.548;2023-10-13T08:59:46;22.40;70.90
19567;DHT22;9930;49.240;8.548;2023-10-13T09:02:40;22.60;70.80
19567;DHT22;9930;49.240;8.548;2023-10-13T09:05:32;22.70;70.40
19567;DHT22;9930;49.240;8.548;2023-10-13T09:08:28;22.90;70.10
19567;DHT22;9930;49.240;8.548;2023-10-13T09:11:12;23.00;69.50
19567;DHT22;9930;49.240;8.548;2023-10-13T09:13:38;23.10;69.10
19567;DHT22;9930;49.240;8.548;2023-10-13T09:16:13;23.30;68.70
19567;DHT22;9930;49.240;8.548;2023-10-13T09:19:10;23.40;68.10
19567;DHT22;9930;49.240;8.548;2023-10-13T09:21:42;23.50;67.90
19567;DHT22;9930;49.240;8.548;2023-10-13T09:24:14;23.60;67.40
19567;DHT22;9930;49.240;8.548;2023-10-13T09:26:55;23.70;66.30
19567;DHT22;9930;49.240;8.548;2023-10-13T09:29:29;23.90;66.80
19567;DHT22;9930;49.240;8.548;2023-10-13T09:32:04;24.00;65.90
19567;DHT22;9930;49.240;8.548;2023-10-13T09:34:36;24.10;65.60
19567;DHT22;9930;49.240;8.548;2023-10-13T09:37:06;24.20;64.90
19567;DHT22;9930;49.240;8.548;2023-10-13T09:39:34;24.30;64.40
19567;DHT22;9930;49.240;8.548;2023-10-13T09:42:10;24.30;63.70
19567;DHT22;9930;49.240;8.548;2023-10-13T09:44:41;24.40;64.60
19567;DHT22;9930;49.240;8.548;2023-10-13T09:47:15;24.50;63.20
19567;DHT22;9930;49.240;8.548;2023-10-13T09:49:59;24.60;62.70
19567;DHT22;9930;49.240;8.548;2023-10-13T09:52:31;24.70;60.70
19567;DHT22;9930;49.240;8.548;2023-10-13T09:55:22;24.80;61.80
19567;DHT22;9930;49.240;8.548;2023-10-13T09:58:03;24.80;60.90
19567;DHT22;9930;49.240;8.548;2023-10-13T10:00:56;24.90;59.50
19567;DHT22;9930;49.240;8.548;2023-10-13T10:03:32;25.00;60.00
19567;DHT22;9930;49.240;8.548;2023-10-13T10:06:08;25.10;60.60
19567;DHT22;9930;49.240;8.548;2023-10-13T10:08:42;25.20;60.60
19567;DHT22;9930;49.240;8.548;2023-10-13T10:17:12;25.50;58.10
19567;DHT22;9930;49.240;8.548;2023-10-13T10:22:13;25.60;58.10
19567;DHT22;9930;49.240;8.548;2023-10-13T10:24:57;25.80;58.40
19567;DHT22;9930;49.240;8.548;2023-10-13T10:27:34;25.80;57.80
19567;DHT22;9930;49.240;8.548;2023-10-13T10:29:59;25.90;57.60
19567;DHT22;9930;49.240;8.548;2023-10-13T10:35:08;26.10;57.10
19567;DHT22;9930;49.240;8.548;2023-10-13T10:37:50;26.10;57.30
19567;DHT22;9930;49.240;8.548;2023-10-13T10:40:32;26.20;57.40
19567;DHT22;9930;49.240;8.548;2023-10-13T10:43:13;26.30;56.90
19567;DHT22;9930;49.240;8.548;2023-10-13T10:45:49;26.40;56.80
19567;DHT22;9930;49.240;8.548;2023-10-13T10:48:15;26.50;56.20
19567;DHT22;9930;49.240;8.548;2023-10-13T10:50:56;26.60;56.90
19567;DHT22;9930;49.240;8.548;2023-10-13T10:53:31;26.70;55.70
19567;DHT22;9930;49.240;8.548;2023-10-13T10:56:13;26.90;56.50
19567;DHT22;9930;49.240;8.548;2023-10-13T10:59:01;27.00;55.90
19567;DHT22;9930;49.240;8.548;2023-10-13T11:01:31;27.10;55.60
19567;DHT22;9930;49.240;8.548;2023-10-13T11:04:07;27.20;55.20
19567;DHT22;9930;49.240;8.548;2023-10-13T11:06:55;27.30;54.70
19567;DHT22;9930;49.240;8.548;2023-10-13T11:09:25;27.30;54.00
19567;DHT22;9930;49.240;8.548;2023-10-13T11:12:10;27.40;54.10
19567;DHT22;9930;49.240;8.548;2023-10-13T11:15:08;27.50;54.50
19567;DHT22;9930;49.240;8.548;2023-10-13T11:17:51;27.50;53.30
19567;DHT22;9930;49.240;8.548;2023-10-13T11:20:21;27.60;53.70
19567;DHT22;9930;49.240;8.548;2023-10-13T11:22:59;27.70;53.70
19567;DHT22;9930;49.240;8.548;2023-10-13T11:25:34;27.80;53.50
19567;DHT22;9930;49.240;8.548;2023-10-13T11:28:13;27.80;53.40
19567;DHT22;9930;49.240;8.548;2023-10-13T11:30:48;27.90;52.40
19567;DHT22;9930;49.240;8.548;2023-10-13T11:33:18;28.00;52.50
19567;DHT22;9930;49.240;8.548;2023-10-13T11:35:49;28.20;52.80
19567;DHT22;9930;49.240;8.548;2023-10-13T11:38:29;28.30;52.40
19567;DHT22;9930;49.240;8.548;2023-10-13T11:41:16;28.40;52.00
19567;DHT22;9930;49.240;8.548;2023-10-13T11:43:49;28.50;51.80
19567;DHT22;9930;49.240;8.548;2023-10-13T11:46:19;28.50;50.80
19567;DHT22;9930;49.240;8.548;2023-10-13T11:49:01;28.60;51.20
19567;DHT22;9930;49.240;8.548;2023-10-13T11:51:45;28.60;51.10
19567;DHT22;9930;49.240;8.548;2023-10-13T11:54:18;28.70;50.80
19567;DHT22;9930;49.240;8.548;2023-10-13T11:56:50;28.60;49.80
19567;DHT22;9930;49.240;8.548;2023-10-13T11:59:17;28.60;50.10
19567;DHT22;9930;49.240;8.548;2023-10-13T12:01:50;28.60;50.20
19567;DHT22;9930;49.240;8.548;2023-10-13T12:04:40;28.60;49.30
19567;DHT22;9930;49.240;8.548;2023-10-13T12:07:09;28.60;49.60
19567;DHT22;9930;49.240;8.548;2023-10-13T12:09:54;28.60;49.50
19567;DHT22;9930;49.240;8.548;2023-10-13T12:12:21;28.60;49.60
19567;DHT22;9930;49.240;8.548;2023-10-13T12:14:48;28.60;49.30
19567;DHT22;9930;49.240;8.548;2023-10-13T12:17:24;28.60;49.30
19567;DHT22;9930;49.240;8.548;2023-10-13T12:20:04;28.60;49.20
19567;DHT22;9930;49.240;8.548;2023-10-13T12:22:32;28.50;48.80
19567;DHT22;9930;49.240;8.548;2023-10-13T12:25:07;28.60;49.00
19567;DHT22;9930;49.240;8.548;2023-10-13T12:27:55;28.50;48.90
19567;DHT22;9930;49.240;8.548;2023-10-13T12:30:38;28.50;48.80
19567;DHT22;9930;49.240;8.548;2023-10-13T12:33:20;28.60;48.90
19567;DHT22;9930;49.240;8.548;2023-10-13T12:36:01;28.60;48.80
19567;DHT22;9930;49.240;8.548;2023-10-13T12:38:39;28.50;48.20
19567;DHT22;9930;49.240;8.548;2023-10-13T12:41:14;28.60;48.70
19567;DHT22;9930;49.240;8.548;2023-10-13T12:43:58;28.70;48.50
19567;DHT22;9930;49.240;8.548;2023-10-13T12:46:44;28.70;48.60
19567;DHT22;9930;49.240;8.548;2023-10-13T12:49:28;28.70;48.80
19567;DHT22;9930;49.240;8.548;2023-10-13T12:52:14;28.70;48.70
19567;DHT22;9930;49.240;8.548;2023-10-13T12:55:07;28.80;48.60
19567;DHT22;9930;49.240;8.548;2023-10-13T12:57:37;28.80;48.40
19567;DHT22;9930;49.240;8.548;2023-10-13T13:00:13;28.90;48.00
19567;DHT22;9930;49.240;8.548;2023-10-13T13:02:42;29.00;47.40
19567;DHT22;9930;49.240;8.548;2023-10-13T13:05:08;29.00;47.30
19567;DHT22;9930;49.240;8.548;2023-10-13T13:07:40;29.00;47.10
19567;DHT22;9930;49.240;8.548;2023-10-13T13:10:13;29.00;46.80
19567;DHT22;9930;49.240;8.548;2023-10-13T13:12:43;29.00;46.90
19567;DHT22;9930;49.240;8.548;2023-10-13T13:15:11;29.00;46.40
19567;DHT22;9930;49.240;8.548;2023-10-13T13:17:40;29.00;46.60
19567;DHT22;9930;49.240;8.548;2023-10-13T13:20:06;29.00;46.60
19567;DHT22;9930;49.240;8.548;2023-10-13T13:22:40;29.00;46.30
19567;DHT22;9930;49.240;8.548;2023-10-13T13:25:06;28.90;45.90
19567;DHT22;9930;49.240;8.548;2023-10-13T13:27:34;28.90;46.20
19567;DHT22;9930;49.240;8.548;2023-10-13T13:30:07;28.80;45.90
19567;DHT22;9930;49.240;8.548;2023-10-13T13:32:38;28.80;46.10
19567;DHT22;9930;49.240;8.548;2023-10-13T13:35:07;28.70;46.10
19567;DHT22;9930;49.240;8.548;2023-10-13T13:37:41;28.70;46.10
19567;DHT22;9930;49.240;8.548;2023-10-13T13:40:10;28.60;46.10
19567;DHT22;9930;49.240;8.548;2023-10-13T13:42:46;28.60;46.10
19567;DHT22;9930;49.240;8.548;2023-10-13T13:45:15;28.60;46.10
19567;DHT22;9930;49.240;8.548;2023-10-13T13:47:48;28.60;46.10
19567;DHT22;9930;49.240;8.548;2023-10-13T13:50:25;28.60;46.20
19567;DHT22;9930;49.240;8.548;2023-10-13T13:52:54;28.60;46.00
19567;DHT22;9930;49.240;8.548;2023-10-13T13:55:24;28.50;46.00
19567;DHT22;9930;49.240;8.548;2023-10-13T13:57:56;28.50;45.60
19567;DHT22;9930;49.240;8.548;2023-10-13T14:00:25;28.50;45.50
19567;DHT22;9930;49.240;8.548;2023-10-13T14:03:07;28.50;45.40
19567;DHT22;9930;49.240;8.548;2023-10-13T14:05:53;28.50;45.20
19567;DHT22;9930;49.240;8.548;2023-10-13T14:08:24;28.50;45.30
19567;DHT22;9930;49.240;8.548;2023-10-13T14:10:56;28.50;45.20
19567;DHT22;9930;49.240;8.548;2023-10-13T14:13:48;28.50;45.10
19567;DHT22;9930;49.240;8.548;2023-10-13T14:16:23;28.40;45.10
19567;DHT22;9930;49.240;8.548;2023-10-13T14:18:50;28.40;45.10
19567;DHT22;9930;49.240;8.548;2023-10-13T14:21:22;28.40;44.80
19567;DHT22;9930;49.240;8.548;2023-10-13T14:23:53;28.30;44.70
19567;DHT22;9930;49.240;8.548;2023-10-13T14:26:20;28.30;44.80
19567;DHT22;9930;49.240;8.548;2023-10-13T14:28:48;28.20;44.60
19567;DHT22;9930;49.240;8.548;2023-10-13T14:31:36;28.20;44.60
19567;DHT22;9930;49.240;8.548;2023-10-13T14:34:03;28.10;44.60
19567;DHT22;9930;49.240;8.548;2023-10-13T14:36:31;28.10;44.70
19567;DHT22;9930;49.240;8.548;2023-10-13T14:39:00;28.00;44.70
19567;DHT22;9930;49.240;8.548;2023-10-13T14:41:30;28.00;44.80
19567;DHT22;9930;49.240;8.548;2023-10-13T14:43:58;28.00;44.90
19567;DHT22;9930;49.240;8.548;2023-10-13T14:46:33;28.00;44.60
19567;DHT22;9930;49.240;8.548;2023-10-13T14:49:02;28.00;44.50
19567;DHT22;9930;49.240;8.548;2023-10-13T14:51:28;28.00;44.60
19567;DHT22;9930;49.240;8.548;2023-10-13T14:53:59;28.10;44.70
19567;DHT22;9930;49.240;8.548;2023-10-13T14:56:26;28.10;44.40
19567;DHT22;9930;49.240;8.548;2023-10-13T14:58:54;28.10;44.50
19567;DHT22;9930;49.240;8.548;2023-10-13T15:01:25;28.10;44.60
19567;DHT22;9930;49.240;8.548;2023-10-13T15:03:55;28.10;44.60
19567;DHT22;9930;49.240;8.548;2023-10-13T15:06:23;28.10;44.60
19567;DHT22;9930;49.240;8.548;2023-10-13T15:08:57;28.20;44.50
19567;DHT22;9930;49.240;8.548;2023-10-13T15:11:25;28.20;44.50
19567;DHT22;9930;49.240;8.548;2023-10-13T15:14:04;28.20;44.50
19567;DHT22;9930;49.240;8.548;2023-10-13T15:16:34;28.20;44.50
19567;DHT22;9930;49.240;8.548;2023-10-13T15:19:00;28.20;44.20
19567;DHT22;9930;49.240;8.548;2023-10-13T15:21:30;28.20;44.10
19567;DHT22;9930;49.240;8.548;2023-10-13T15:24:00;28.30;43.90
19567;DHT22;9930;49.240;8.548;2023-10-13T15:26:39;28.30;44.10
19567;DHT22;9930;49.240;8.548;2023-10-13T15:29:08;28.30;43.80
19567;DHT22;9930;49.240;8.548;2023-10-13T15:31:41;28.30;43.60
19567;DHT22;9930;49.240;8.548;2023-10-13T15:34:13;28.30;43.70
19567;DHT22;9930;49.240;8.548;2023-10-13T15:36:43;28.30;43.30
19567;DHT22;9930;49.240;8.548;2023-10-13T15:39:10;28.30;43.30
19567;DHT22;9930;49.240;8.548;2023-10-13T15:41:37;28.20;43.40
19567;DHT22;9930;49.240;8.548;2023-10-13T15:44:10;28.20;43.50
19567;DHT22;9930;49.240;8.548;2023-10-13T15:46:39;28.20;43.30
19567;DHT22;9930;49.240;8.548;2023-10-13T15:49:05;28.10;43.30
19567;DHT22;9930;49.240;8.548;2023-10-13T15:51:37;28.10;43.20
19567;DHT22;9930;49.240;8.548;2023-10-13T15:54:03;28.00;43.10
19567;DHT22;9930;49.240;8.548;2023-10-13T15:56:30;27.90;43.20
19567;DHT22;9930;49.240;8.548;2023-10-13T15:58:59;27.90;43.20
19567;DHT22;9930;49.240;8.548;2023-10-13T16:01:30;27.80;43.20
19567;DHT22;9930;49.240;8.548;2023-10-13T16:03:58;27.70;43.30
19567;DHT22;9930;49.240;8.548;2023-10-13T16:06:24;27.60;43.30
19567;DHT22;9930;49.240;8.548;2023-10-13T16:08:52;27.60;43.20
19567;DHT22;9930;49.240;8.548;2023-10-13T16:11:19;27.50;43.10
19567;DHT22;9930;49.240;8.548;2023-10-13T16:13:45;27.40;43.30
19567;DHT22;9930;49.240;8.548;2023-10-13T16:16:19;27.30;43.20
19567;DHT22;9930;49.240;8.548;2023-10-13T16:18:48;27.20;43.00
19567;DHT22;9930;49.240;8.548;2023-10-13T16:21:15;27.20;43.00
19567;DHT22;9930;49.240;8.548;2023-10-13T16:23:48;27.10;42.90
19567;DHT22;9930;49.240;8.548;2023-10-13T16:26:16;27.00;43.00
19567;DHT22;9930;49.240;8.548;2023-10-13T16:28:52;27.00;43.00
19567;DHT22;9930;49.240;8.548;2023-10-13T16:31:23;26.90;42.80
19567;DHT22;9930;49.240;8.548;2023-10-13T16:33:54;26.80;42.80
19567;DHT22;9930;49.240;8.548;2023-10-13T16:36:25;26.70;42.60
19567;DHT22;9930;49.240;8.548;2023-10-13T16:38:52;26.60;42.70
19567;DHT22;9930;49.240;8.548;2023-10-13T16:41:26;26.60;42.70
19567;DHT22;9930;49.240;8.548;2023-10-13T16:43:54;26.50;42.60
19567;DHT22;9930;49.240;8.548;2023-10-13T16:46:22;26.40;43.10
19567;DHT22;9930;49.240;8.548;2023-10-13T16:48:48;26.40;42.40
19567;DHT22;9930;49.240;8.548;2023-10-13T16:51:17;26.30;42.50